Time;durP1;ratioP1;P1;durP2;ratioP2;P2;SDS_P1;SDS_P2;PMS_P1;PMS_P2;Temp;Humidity;BMP_temperature;BMP_pressure;BME280_temperature;BME280_humidity;BME280_pressure;Samples;Min_cycle;Max_cycle;Signal;HPM_P1;HPM_P2
2021/11/07 00:00:52;;;;;;;183.18;29.45;;;;;;;4.42;68.78;96084.75;4999504;28;20494;-71
2021/11/07 00:04:06;;;;;;;185.48;32.35;;;;;;;5.37;66.91;96097.81;4994182;28;20105;-74
2021/11/07 00:09:20;;;;;;;172.10;30.60;;;;;;;4.88;67.59;96108.31;4991484;28;20111;-73
2021/11/07 00:11:33;;;;;;;132.40;31.55;;;;;;;6.01;65.27;96097.19;4985158;28;20517;-74
2021/11/07 00:14:00;;;;;;;184.30;34.28;;;;;;;6.42;63.97;96093.00;4990386;28;20018;-74
2021/11/07 00:16:29;;;;;;;121.20;33.60;;;;;;;6.59;63.13;96080.41;5013561;28;20542;-74
2021/11/07 00:22:15;;;;;;;132.10;30.17;;;;;;;6.27;63.78;96100.81;5007739;28;20416;-72
2021/11/07 00:27:24;;;;;;;137.90;28.95;;;;;;;4.64;68.78;96110.34;4998179;28;20034;-73
2021/11/07 00:32:32;;;;;;;126.72;31.05;;;;;;;4.99;68.09;96119.78;4999097;28;20666;-74
2021/11/07 00:37:32;;;;;;;158.60;28.02;;;;;;;4.07;71.76;96126.34;5010270;28;20172;-71
2021/11/07 00:56:29;;;;;;;226.40;35.00;;;;;;;4.65;71.37;96144.38;5010137;28;20061;-72
2021/11/07 00:59:13;;;;;;;167.65;36.38;;;;;;;4.98;70.57;96141.94;5009804;28;20026;-71
2021/11/07 01:01:45;;;;;;;167.52;35.75;;;;;;;5.35;69.12;96132.38;4996111;28;20105;-71
2021/11/07 01:04:14;;;;;;;211.07;36.63;;;;;;;5.08;70.23;96118.34;4998919;28;20400;-72
2021/11/07 01:06:41;;;;;;;216.27;36.42;;;;;;;5.09;70.70;96141.03;5009946;28;20038;-72
2021/11/07 01:09:08;;;;;;;207.45;37.35;;;;;;;5.20;70.04;96146.16;5009333;28;20510;-71
2021/11/07 01:11:34;;;;;;;221.80;37.50;;;;;;;5.42;69.09;96135.63;5009911;28;20129;-72
2021/11/07 01:13:59;;;;;;;164.07;40.15;;;;;;;6.74;65.86;96137.88;5009576;28;20488;-72
2021/11/07 01:16:24;;;;;;;220.15;35.83;;;;;;;5.37;69.62;96134.75;5000440;28;20041;-72
2021/11/07 01:18:50;;;;;;;231.52;36.40;;;;;;;5.58;68.82;96131.31;4998728;28;20129;-72
2021/11/07 01:21:18;;;;;;;249.80;34.25;;;;;;;5.30;69.59;96142.06;5007286;28;20498;-72
2021/11/07 01:23:58;;;;;;;267.83;39.85;;;;;;;5.54;69.15;96140.78;5009562;28;20029;-72
2021/11/07 01:28:58;;;;;;;220.63;36.83;;;;;;;5.50;70.14;96138.88;5013850;28;20486;-72
2021/11/07 01:31:25;;;;;;;153.25;33.90;;;;;;;5.65;68.79;96125.84;5010269;28;20092;-72
2021/11/07 01:33:52;;;;;;;240.25;36.20;;;;;;;5.82;68.29;96121.25;5002888;28;20168;-73
2021/11/07 01:39:16;;;;;;;168.73;34.65;;;;;;;5.06;71.38;96107.22;4993704;28;20454;-73
2021/11/07 01:41:57;;;;;;;180.13;33.17;;;;;;;5.50;69.08;96088.75;4993535;28;20057;-73
2021/11/07 01:44:23;;;;;;;187.63;39.17;;;;;;;6.35;67.79;96079.22;4993458;28;20018;-74
2021/11/07 01:46:51;;;;;;;134.77;36.47;;;;;;;6.75;65.61;96076.81;5011463;28;20475;-71
2021/11/07 01:49:22;;;;;;;160.60;36.35;;;;;;;6.45;66.55;96066.88;5004379;28;20467;-72
2021/11/07 01:51:50;;;;;;;119.43;35.50;;;;;;;7.57;64.45;96079.78;5007252;28;20113;-74
2021/11/07 01:54:26;;;;;;;115.00;35.25;;;;;;;7.55;64.02;96074.75;5012760;28;20092;-73
2021/11/07 01:56:52;;;;;;;104.90;32.00;;;;;;;6.92;63.78;96074.00;5013147;28;20479;-74
2021/11/07 01:59:18;;;;;;;119.95;32.67;;;;;;;7.01;64.20;96084.88;5012871;28;20105;-73
2021/11/07 02:01:44;;;;;;;81.40;29.00;;;;;;;6.08;66.41;96074.78;5009124;28;20403;-74
2021/11/07 02:04:10;;;;;;;64.45;28.70;;;;;;;6.60;65.37;96060.84;5004523;28;20472;-73
2021/11/07 02:06:35;;;;;;;52.92;29.27;;;;;;;7.86;63.45;96055.47;4993511;28;20068;-73
2021/11/07 02:09:01;;;;;;;75.57;29.80;;;;;;;7.94;62.49;96039.84;4992683;28;20480;-74
2021/11/07 02:11:26;;;;;;;42.13;26.45;;;;;;;8.49;61.69;96040.09;4992957;28;20026;-73
2021/11/07 02:13:51;;;;;;;49.03;26.00;;;;;;;8.38;61.19;96043.81;4992865;28;20038;-75
2021/11/07 02:16:19;;;;;;;58.25;26.20;;;;;;;7.57;61.71;96058.59;5003485;28;20045;-73
2021/11/07 02:18:45;;;;;;;63.67;25.25;;;;;;;6.20;65.30;96071.97;4999540;28;20129;-73
2021/11/07 02:21:11;;;;;;;57.58;26.70;;;;;;;7.14;63.32;96070.38;5003813;28;20025;-75
2021/11/07 02:23:37;;;;;;;55.20;28.42;;;;;;;7.90;62.09;96062.63;5012066;28;20534;-73
2021/11/07 02:26:05;;;;;;;45.35;25.70;;;;;;;8.43;61.72;96049.91;5012481;28;20022;-74
2021/11/07 02:28:43;;;;;;;77.82;25.73;;;;;;;8.22;60.58;96043.81;5012197;28;20479;-74
2021/11/07 02:31:11;;;;;;;41.67;24.05;;;;;;;8.64;60.21;96032.09;5011145;28;20028;-73
2021/11/07 02:33:37;;;;;;;33.72;23.50;;;;;;;8.94;60.20;96035.72;4996468;28;20018;-73
2021/11/07 02:36:12;;;;;;;33.72;23.45;;;;;;;9.20;59.49;96023.94;5003924;28;20026;-73
2021/11/07 02:38:38;;;;;;;33.88;23.55;;;;;;;9.19;59.87;96011.75;5011115;28;20459;-73
2021/11/07 02:41:05;;;;;;;31.42;21.95;;;;;;;9.42;58.90;96010.31;5012002;28;20026;-73
2021/11/07 02:43:38;;;;;;;40.35;22.10;;;;;;;9.40;58.11;96011.63;5011975;28;20050;-74
2021/11/07 02:46:04;;;;;;;23.70;18.67;;;;;;;9.05;57.56;96011.53;5008849;28;20061;-74
2021/11/07 02:48:29;;;;;;;60.30;21.05;;;;;;;8.87;57.31;96024.63;4995725;28;20484;-74
2021/11/07 02:50:55;;;;;;;22.45;17.98;;;;;;;8.77;57.42;96022.78;4999799;28;20150;-73
2021/11/07 02:53:20;;;;;;;22.48;17.20;;;;;;;8.70;57.70;96004.53;4992070;28;20377;-73
2021/11/07 02:55:45;;;;;;;28.83;16.33;;;;;;;8.33;56.62;96002.97;4992472;28;20030;-74
2021/11/07 02:58:11;;;;;;;18.70;16.73;;;;;;;8.62;56.86;96015.69;4992329;28;20489;-74
2021/11/07 03:00:37;;;;;;;19.80;16.02;;;;;;;8.54;56.96;96000.31;4997373;28;20022;-73
2021/11/07 03:03:02;;;;;;;18.77;16.00;;;;;;;8.15;56.09;96008.84;4998620;28;20023;-73
2021/11/07 03:05:29;;;;;;;20.30;17.10;;;;;;;8.65;56.50;95991.28;5000048;28;20476;-74
2021/11/07 03:07:55;;;;;;;17.90;16.00;;;;;;;8.85;56.30;95980.59;4992133;28;20494;-73
2021/11/07 03:10:22;;;;;;;17.02;15.10;;;;;;;8.87;56.95;95990.94;4991455;28;20034;-73
2021/11/07 03:13:02;;;;;;;15.95;14.25;;;;;;;8.53;55.30;95978.31;4990638;28;20026;-73
2021/11/07 03:15:28;;;;;;;17.38;15.15;;;;;;;8.60;55.40;95967.44;4995571;28;20105;-74
2021/11/07 03:17:53;;;;;;;16.75;14.85;;;;;;;8.49;55.05;95961.34;4998622;28;20109;-74
2021/11/07 03:20:19;;;;;;;20.48;15.80;;;;;;;7.97;55.43;95956.38;5001132;28;20119;-74
2021/11/07 03:22:44;;;;;;;16.02;14.35;;;;;;;8.26;55.33;95946.81;5011256;28;20033;-74
2021/11/07 03:25:10;;;;;;;16.95;15.15;;;;;;;8.47;55.54;95931.66;5011084;28;20167;-74
2021/11/07 03:27:42;;;;;;;15.50;13.80;;;;;;;8.53;54.98;95932.44;5011223;28;20084;-74
2021/11/07 03:33:27;;;;;;;17.75;14.73;;;;;;;6.11;60.22;95973.13;4996265;28;20046;-73
2021/11/07 03:35:53;;;;;;;18.58;14.55;;;;;;;5.60;62.58;95976.16;4999625;28;20645;-74
2021/11/07 03:38:18;;;;;;;19.15;15.40;;;;;;;5.11;64.82;95952.47;4990250;28;20722;-74
2021/11/07 03:40:44;;;;;;;19.52;17.08;;;;;;;5.63;63.11;95945.81;4991242;28;20034;-74
2021/11/07 03:43:10;;;;;;;21.88;15.73;;;;;;;5.09;63.75;95978.31;4990023;28;20029;-74
2021/11/07 03:45:35;;;;;;;24.92;15.07;;;;;;;4.21;67.30;95990.72;4995129;28;20030;-74
2021/11/07 03:48:01;;;;;;;30.75;18.30;;;;;;;4.58;67.07;95961.94;5007552;28;20024;-73
2021/11/07 03:50:29;;;;;;;29.02;18.05;;;;;;;4.65;66.43;95986.25;4999214;28;20026;-74
2021/11/07 03:52:55;;;;;;;32.50;19.40;;;;;;;4.56;67.21;95971.94;4990929;28;20061;-74
2021/11/07 03:55:20;;;;;;;30.55;18.88;;;;;;;4.36;67.95;95963.78;5006437;28;20479;-74
2021/11/07 03:57:46;;;;;;;41.38;20.52;;;;;;;4.38;68.42;95966.94;4991228;28;20109;-74
2021/11/07 04:00:14;;;;;;;33.15;19.38;;;;;;;4.44;67.51;95963.34;4989475;28;20476;-73
2021/11/07 04:02:40;;;;;;;33.38;20.15;;;;;;;5.40;65.86;95939.03;4994976;28;20022;-73
2021/11/07 04:05:09;;;;;;;33.05;20.20;;;;;;;5.68;64.38;95941.38;4999345;28;20068;-73
2021/11/07 04:07:35;;;;;;;37.03;19.15;;;;;;;4.75;66.33;95942.63;5010774;28;20116;-73
2021/11/07 04:10:00;;;;;;;33.38;19.88;;;;;;;5.23;65.05;95936.53;5010312;28;20116;-73
2021/11/07 04:12:25;;;;;;;35.58;20.65;;;;;;;6.21;62.66;95944.13;5010845;28;20038;-74
2021/11/07 04:14:51;;;;;;;38.13;22.35;;;;;;;6.81;61.97;95908.41;5010320;28;20057;-73
2021/11/07 04:17:17;;;;;;;35.30;21.45;;;;;;;7.03;59.81;95921.41;5017520;28;20641;-74
2021/11/07 04:19:42;;;;;;;34.00;20.92;;;;;;;7.52;59.56;95916.44;5000227;28;20090;-74
2021/11/07 04:22:10;;;;;;;35.20;21.73;;;;;;;7.50;58.45;95897.38;4991244;28;20416;-73
2021/11/07 04:24:36;;;;;;;33.88;20.95;;;;;;;7.14;58.49;95898.41;4990560;28;20038;-73
2021/11/07 04:27:02;;;;;;;41.00;23.17;;;;;;;6.40;60.25;95902.22;4990893;28;20031;-74
2021/11/07 04:29:28;;;;;;;39.55;21.92;;;;;;;5.69;62.26;95916.56;4990345;28;20169;-73
2021/11/07 04:31:54;;;;;;;35.03;21.45;;;;;;;5.71;62.56;95905.75;4996682;28;20101;-74
2021/11/07 04:34:20;;;;;;;35.95;22.38;;;;;;;6.05;62.23;95893.06;5016810;28;20108;-73
2021/11/07 04:36:46;;;;;;;35.08;20.60;;;;;;;5.60;61.80;95912.03;4990829;28;20457;-78
2021/11/07 04:39:11;;;;;;;31.08;20.27;;;;;;;5.88;62.08;95900.31;4990026;28;20037;-73
2021/11/07 04:41:37;;;;;;;32.63;19.63;;;;;;;4.64;65.66;95931.97;4990947;28;20026;-74
2021/11/07 04:44:03;;;;;;;33.40;21.15;;;;;;;5.60;63.17;95917.28;5005889;28;20550;-74
2021/11/07 04:46:29;;;;;;;37.00;22.90;;;;;;;6.57;61.70;95900.16;4995614;28;20026;-73
2021/11/07 04:48:54;;;;;;;35.28;21.42;;;;;;;7.17;59.82;95911.13;5000565;28;20036;-73
2021/11/07 04:51:20;;;;;;;36.72;21.60;;;;;;;5.57;62.01;95907.22;5002085;28;20227;-72
2021/11/07 04:53:46;;;;;;;33.63;20.77;;;;;;;5.37;63.79;95903.38;5024984;28;20057;-74
2021/11/07 04:56:13;;;;;;;38.03;22.20;;;;;;;5.82;62.09;95904.75;5010225;28;20468;-74
2021/11/07 04:58:39;;;;;;;33.10;20.38;;;;;;;4.62;65.74;95914.81;5010015;28;20040;-74
2021/11/07 05:01:05;;;;;;;39.00;21.00;;;;;;;4.70;65.29;95912.53;5005940;28;20022;-74
2021/11/07 05:03:31;;;;;;;36.03;20.55;;;;;;;4.25;67.20;95928.63;5004279;28;20076;-73
2021/11/07 05:05:57;;;;;;;39.13;22.10;;;;;;;4.40;67.06;95941.16;5005816;28;20518;-74
2021/11/07 05:08:24;;;;;;;50.30;23.17;;;;;;;4.77;65.11;95936.06;5014139;28;20029;-74
2021/11/07 05:10:49;;;;;;;44.70;22.73;;;;;;;4.12;67.32;95945.56;5013938;28;20018;-74
2021/11/07 05:13:15;;;;;;;57.03;25.92;;;;;;;4.85;64.58;95940.88;5014072;28;20375;-73
2021/11/07 05:15:40;;;;;;;63.45;27.05;;;;;;;5.13;63.68;95936.44;5030021;28;20542;-74
2021/11/07 05:18:06;;;;;;;64.75;26.67;;;;;;;4.63;64.67;95943.56;5026182;28;20026;-74
2021/11/07 05:20:31;;;;;;;53.72;24.65;;;;;;;4.13;66.49;95941.06;5005222;28;20026;-74
2021/11/07 05:22:57;;;;;;;56.40;25.48;;;;;;;4.12;66.39;95950.03;5009011;28;20029;-74
2021/11/07 05:25:22;;;;;;;55.13;23.70;;;;;;;3.78;67.90;95951.91;5028947;28;20025;-74
2021/11/07 05:27:49;;;;;;;58.35;23.75;;;;;;;3.92;67.54;95961.84;5013896;28;20049;-74
2021/11/07 05:30:16;;;;;;;51.83;25.33;;;;;;;4.21;66.86;95950.41;5013115;28;20113;-72
2021/11/07 05:32:44;;;;;;;58.15;25.65;;;;;;;4.10;67.27;95947.66;5010649;28;20627;-74
2021/11/07 05:35:11;;;;;;;66.45;28.02;;;;;;;5.10;63.18;95940.34;5005940;28;20022;-72
2021/11/07 05:37:36;;;;;;;67.63;28.40;;;;;;;5.46;62.53;95920.34;5001140;28;20030;-72
2021/11/07 05:40:04;;;;;;;76.43;29.35;;;;;;;5.11;61.94;95920.84;4993960;28;20027;-73
2021/11/07 05:42:29;;;;;;;66.32;27.65;;;;;;;4.74;63.17;95923.38;4993758;28;20057;-73
2021/11/07 05:44:54;;;;;;;63.30;25.60;;;;;;;3.87;66.27;95943.34;4993489;28;20061;-73
2021/11/07 05:47:20;;;;;;;56.08;25.67;;;;;;;4.65;64.80;95932.75;5022453;28;20029;-75
2021/11/07 05:49:45;;;;;;;49.13;24.30;;;;;;;4.68;63.57;95940.97;5004959;28;20579;-73
2021/11/07 05:52:11;;;;;;;56.60;24.88;;;;;;;4.79;63.90;95933.19;5002660;28;20479;-72
2021/11/07 05:54:36;;;;;;;48.70;22.52;;;;;;;4.08;65.95;95949.69;5012869;28;20029;-73
2021/11/07 05:57:02;;;;;;;41.20;21.88;;;;;;;4.52;64.69;95922.59;5013299;28;20022;-74
2021/11/07 05:59:29;;;;;;;31.23;19.80;;;;;;;5.35;63.63;95921.31;5012682;28;20022;-72
2021/11/07 06:01:57;;;;;;;37.63;21.40;;;;;;;5.72;61.73;95912.63;5012121;28;20040;-73
2021/11/07 06:04:23;;;;;;;29.35;19.67;;;;;;;6.17;60.51;95906.84;5014470;28;20057;-73
2021/11/07 06:06:48;;;;;;;27.05;18.48;;;;;;;6.54;60.47;95902.50;5013109;28;20026;-73
2021/11/07 06:09:13;;;;;;;27.15;17.65;;;;;;;5.56;60.79;95905.66;5012792;28;20143;-72
2021/11/07 06:11:39;;;;;;;23.33;17.20;;;;;;;6.02;61.01;95898.84;5012779;28;20018;-72
2021/11/07 06:14:04;;;;;;;24.63;17.92;;;;;;;6.18;59.55;95873.31;5011905;28;20025;-72
2021/11/07 06:16:30;;;;;;;22.60;17.10;;;;;;;6.63;59.09;95877.97;5014736;28;20506;-73
2021/11/07 06:18:55;;;;;;;30.67;20.23;;;;;;;6.45;59.04;95849.38;4999807;28;20034;-72
2021/11/07 06:21:22;;;;;;;20.52;16.58;;;;;;;6.05;60.06;95848.16;5003067;28;20027;-72
2021/11/07 06:23:49;;;;;;;23.20;17.02;;;;;;;6.40;59.00;95834.28;5012202;28;20084;-74
2021/11/07 06:26:15;;;;;;;18.10;15.52;;;;;;;7.10;57.50;95824.06;5012590;28;20780;-73
2021/11/07 06:28:40;;;;;;;24.83;17.95;;;;;;;7.34;56.84;95813.75;5012423;28;20030;-72
2021/11/07 06:31:08;;;;;;;19.58;15.55;;;;;;;7.46;55.78;95818.75;5012040;28;20037;-72
2021/11/07 06:33:34;;;;;;;19.50;15.68;;;;;;;7.71;55.01;95829.31;5003660;28;20030;-73
2021/11/07 06:35:59;;;;;;;19.05;16.10;;;;;;;7.33;55.39;95845.78;5000842;28;20104;-72
2021/11/07 06:38:25;;;;;;;17.67;14.63;;;;;;;5.55;60.87;95872.41;4992630;28;20447;-73
2021/11/07 06:40:52;;;;;;;16.60;13.95;;;;;;;5.92;60.12;95875.81;4993081;28;20023;-73
2021/11/07 06:43:17;;;;;;;19.67;15.13;;;;;;;5.58;61.27;95877.97;4992775;28;20072;-73
2021/11/07 06:45:42;;;;;;;20.30;15.55;;;;;;;5.48;61.48;95905.09;4993119;28;20034;-74
2021/11/07 06:48:08;;;;;;;20.40;15.68;;;;;;;4.44;65.15;95932.53;4998552;28;20026;-73
2021/11/07 06:50:35;;;;;;;18.42;14.95;;;;;;;4.76;64.04;95915.22;5004381;28;20184;-73
2021/11/07 06:53:01;;;;;;;17.75;15.52;;;;;;;5.72;61.34;95889.66;5012149;28;20018;-72
2021/11/07 06:55:27;;;;;;;19.65;14.75;;;;;;;6.08;60.06;95913.66;5012431;28;20022;-73
2021/11/07 06:57:52;;;;;;;16.58;14.30;;;;;;;6.95;58.73;95903.41;5012333;28;20036;-73
2021/11/07 07:00:23;;;;;;;20.25;15.82;;;;;;;7.27;57.17;95911.16;5011963;28;20494;-74
2021/11/07 07:02:48;;;;;;;18.48;15.77;;;;;;;6.84;57.50;95929.03;5004659;28;20034;-73
2021/11/07 07:05:17;;;;;;;17.30;14.60;;;;;;;6.39;58.49;95924.38;5003853;28;20368;-73
2021/11/07 07:07:47;;;;;;;16.42;13.80;;;;;;;5.81;60.48;95937.50;4992770;28;20027;-73
2021/11/07 07:10:22;;;;;;;19.52;13.30;;;;;;;4.53;64.52;95934.72;4992155;28;20034;-72
2021/11/07 07:15:36;;;;;;;19.48;15.77;;;;;;;6.44;60.00;95921.75;4992652;28;20380;-73
2021/11/07 07:31:32;;;;;;;19.77;16.00;;;;;;;7.43;58.26;95906.66;4991669;28;20061;-74
2021/11/07 07:34:08;;;;;;;19.63;16.70;;;;;;;7.06;57.83;95901.56;5002010;28;20056;-71
2021/11/07 07:36:34;;;;;;;19.05;16.77;;;;;;;8.07;55.89;95898.09;5018178;28;20018;-74
2021/11/07 07:39:00;;;;;;;18.48;16.15;;;;;;;8.64;55.10;95899.50;5010846;28;20044;-75
2021/11/07 07:41:26;;;;;;;21.13;16.80;;;;;;;8.75;53.45;95876.38;5011384;28;20023;-73
2021/11/07 07:43:53;;;;;;;17.35;15.50;;;;;;;8.30;54.03;95894.84;5010740;28;20042;-71
2021/11/07 07:46:20;;;;;;;17.67;15.80;;;;;;;7.91;55.25;95884.09;5011333;28;20030;-70
2021/11/07 07:48:46;;;;;;;18.95;16.42;;;;;;;8.02;55.23;95885.63;5000020;28;20053;-67
2021/11/07 07:51:14;;;;;;;20.92;17.20;;;;;;;8.32;54.82;95876.00;4999680;28;20097;-68
2021/11/07 07:53:42;;;;;;;19.73;16.70;;;;;;;8.57;54.29;95878.59;5010662;28;20050;-70
2021/11/07 07:56:08;;;;;;;16.50;14.80;;;;;;;8.83;53.67;95871.28;5010820;28;20025;-69
2021/11/07 07:58:36;;;;;;;16.55;14.73;;;;;;;8.90;53.29;95857.72;5010773;28;20022;-69
2021/11/07 08:01:02;;;;;;;15.73;13.80;;;;;;;9.11;52.91;95845.91;5011026;28;20033;-71
2021/11/07 08:03:28;;;;;;;14.88;13.32;;;;;;;9.21;52.12;95850.31;5016424;28;20022;-78
2021/11/07 08:05:54;;;;;;;13.10;11.80;;;;;;;9.18;51.34;95850.09;4999290;28;20026;-73
2021/11/07 08:08:19;;;;;;;13.27;11.98;;;;;;;9.15;52.00;95843.47;4991508;28;20037;-72
2021/11/07 08:10:46;;;;;;;13.98;12.55;;;;;;;9.24;51.95;95838.38;5005684;28;20084;-67
2021/11/07 08:13:11;;;;;;;12.80;11.52;;;;;;;9.25;51.60;95832.00;4991123;28;20053;-80
2021/11/07 08:15:37;;;;;;;14.70;13.30;;;;;;;9.22;51.68;95835.22;4992362;28;20050;-72
2021/11/07 08:18:02;;;;;;;13.10;11.85;;;;;;;9.33;51.70;95824.22;5013275;28;20434;-72
2021/11/07 08:20:29;;;;;;;13.55;12.25;;;;;;;9.19;51.47;95833.09;5001817;28;20026;-71
2021/11/07 08:22:57;;;;;;;12.85;11.63;;;;;;;9.32;51.21;95833.28;5005177;28;20096;-71
2021/11/07 08:25:23;;;;;;;13.73;12.32;;;;;;;9.01;52.45;95823.97;5010388;28;20026;-70
2021/11/07 08:27:53;;;;;;;12.50;11.30;;;;;;;9.07;51.98;95818.34;5010157;28;20045;-70
2021/11/07 08:30:24;;;;;;;13.38;12.02;;;;;;;9.12;51.57;95820.16;5009650;28;20582;-69
2021/11/07 08:32:50;;;;;;;12.85;11.43;;;;;;;9.23;51.46;95808.38;5002567;28;20555;-70
2021/11/07 08:35:16;;;;;;;13.23;11.80;;;;;;;7.85;54.99;95810.22;5001141;28;20022;-70
2021/11/07 08:40:12;;;;;;;13.80;10.73;;;;;;;8.44;54.06;95828.00;5009628;28;20026;-69
2021/11/07 08:42:42;;;;;;;11.55;10.45;;;;;;;8.89;52.25;95789.00;5008438;28;20026;-67
2021/11/07 09:01:41;;;;;;;8.13;7.35;;;;;;;7.67;52.95;95795.69;5010879;28;20041;-74
2021/11/07 09:09:29;;;;;;;7.13;6.43;;;;;;;7.80;52.24;95782.66;5008268;28;20026;-72
2021/11/07 09:11:56;;;;;;;6.97;6.00;;;;;;;8.69;50.18;95769.50;5011213;28;20058;-75
2021/11/07 09:14:30;;;;;;;6.60;6.00;;;;;;;8.31;50.74;95763.91;5010292;28;20037;-74
2021/11/07 09:16:56;;;;;;;6.43;5.82;;;;;;;9.40;49.09;95756.72;5011890;28;20534;-72
2021/11/07 09:19:25;;;;;;;5.70;5.20;;;;;;;10.12;47.11;95738.91;5000732;28;20557;-73
2021/11/07 09:21:56;;;;;;;6.32;5.38;;;;;;;9.34;47.61;95737.41;4999373;28;20647;-72
2021/11/07 09:25:06;;;;;;;5.55;5.05;;;;;;;10.01;46.80;95732.13;5008521;28;20028;-73
2021/11/07 09:27:28;;;;;;;6.50;4.72;;;;;;;9.26;48.65;95728.16;5004826;28;20120;-73
2021/11/07 09:30:03;;;;;;;6.13;5.32;;;;;;;9.68;46.65;95710.75;5009855;28;20022;-75
2021/11/07 09:40:03;;;;;;;4.32;4.03;;;;;;;10.79;44.56;95682.88;4989772;28;20149;-73
2021/11/07 09:42:36;;;;;;;4.43;4.03;;;;;;;10.79;42.77;95680.22;4990674;28;20033;-73
2021/11/07 09:45:15;;;;;;;4.20;3.88;;;;;;;11.83;42.71;95682.34;4991660;28;20061;-78
2021/11/07 09:47:44;;;;;;;3.65;3.35;;;;;;;10.77;41.57;95677.09;5016397;28;20391;-73
2021/11/07 09:50:12;;;;;;;3.70;3.40;;;;;;;10.82;42.12;95675.13;5000488;28;20030;-81
2021/11/07 09:52:41;;;;;;;3.65;3.05;;;;;;;11.73;40.08;95676.41;5006868;28;20040;-74
2021/11/07 09:55:08;;;;;;;3.22;2.92;;;;;;;12.00;40.51;95662.25;5014020;28;20022;-74
2021/11/07 09:57:35;;;;;;;3.25;2.95;;;;;;;12.91;38.62;95667.34;5030475;28;20026;-82
2021/11/07 10:00:04;;;;;;;2.80;2.60;;;;;;;12.23;38.67;95661.19;5013545;28;20057;-84
2021/11/07 10:02:32;;;;;;;3.08;2.78;;;;;;;11.80;38.92;95661.56;5015563;28;20092;-82
2021/11/07 10:04:59;;;;;;;2.58;2.38;;;;;;;11.33;39.68;95670.78;4995507;28;20074;-78
2021/11/07 10:07:30;;;;;;;3.97;2.20;;;;;;;11.04;39.23;95671.03;5012942;28;20053;-71
2021/11/07 10:09:59;;;;;;;2.20;2.00;;;;;;;11.04;40.08;95676.34;5012372;28;20099;-73
2021/11/07 10:12:46;;;;;;;2.55;2.20;;;;;;;12.77;37.35;95655.97;5012845;28;20053;-73
2021/11/07 10:15:39;;;;;;;2.25;2.10;;;;;;;13.83;35.49;95660.38;5013294;28;20080;-77
2021/11/07 10:18:07;;;;;;;1.98;1.80;;;;;;;12.54;35.76;95641.81;5009348;28;20109;-70
2021/11/07 10:20:39;;;;;;;1.70;1.60;;;;;;;11.70;37.01;95677.78;4996531;28;20088;-74
2021/11/07 10:23:09;;;;;;;;;;;;;;;11.99;36.57;95674.81;5004785;28;20101;-72
2021/11/07 10:25:50;;;;;;;3.55;1.60;;;;;;;10.83;38.72;95683.91;5013335;28;20442;-81
2021/11/07 10:28:39;;;;;;;2.13;1.60;;;;;;;12.15;36.15;95683.25;5014365;28;20026;-76
2021/11/07 10:31:11;;;;;;;2.08;1.75;;;;;;;11.27;38.37;95693.25;5029356;28;20100;-80
2021/11/07 10:33:56;;;;;;;2.28;2.08;;;;;;;11.44;38.60;95696.91;5008939;28;20018;-77
2021/11/07 10:42:10;;;;;;;2.35;2.13;;;;;;;11.03;39.96;95658.81;4995305;28;20128;-82
2021/11/07 10:52:46;;;;;;;1.80;1.70;;;;;;;10.77;41.08;95653.91;5008195;28;20482;-77
2021/11/07 10:55:19;;;;;;;1.88;1.73;;;;;;;10.34;40.66;95634.69;4994004;28;20531;-82
2021/11/07 10:57:50;;;;;;;1.98;1.88;;;;;;;11.34;39.29;95613.75;4992374;28;20065;-75
2021/11/07 11:00:27;;;;;;;2.05;1.80;;;;;;;11.36;39.24;95616.91;4992529;28;20037;-81
2021/11/07 11:03:09;;;;;;;2.05;1.73;;;;;;;10.95;39.46;95615.00;4999543;28;20026;-80
2021/11/07 11:05:41;;;;;;;1.88;1.77;;;;;;;10.29;41.46;95629.44;5008124;28;20587;-76
2021/11/07 11:08:22;;;;;;;2.20;2.00;;;;;;;11.06;39.32;95635.06;5004583;28;20026;-71
2021/11/07 11:22:29;;;;;;;2.15;1.65;;;;;;;11.71;38.67;95604.72;4999978;28;20029;-71
2021/11/07 11:24:42;;;;;;;2.30;1.80;;;;;;;12.43;36.92;95604.72;4987233;28;20038;-78
2021/11/07 11:27:19;;;;;;;2.05;1.30;;;;;;;10.99;38.80;95610.69;4992898;28;20027;-76
2021/11/07 11:43:03;;;;;;;1.85;1.60;;;;;;;12.39;36.56;95608.31;4992304;28;20045;-73
2021/11/07 11:45:35;;;;;;;1.67;1.58;;;;;;;12.07;37.24;95609.31;4992001;28;20476;-74
2021/11/07 11:56:38;;;;;;;1.95;1.73;;;;;;;12.25;36.95;95599.56;5012147;28;20068;-77
2021/11/07 11:59:27;;;;;;;1.70;1.60;;;;;;;12.41;36.49;95592.78;5011689;28;20578;-78
2021/11/07 12:02:11;;;;;;;1.92;1.70;;;;;;;13.05;35.51;95563.09;5010261;28;20030;-73
2021/11/07 12:05:24;;;;;;;1.67;1.58;;;;;;;13.19;34.91;95564.56;4998291;28;20032;-76
2021/11/07 12:16:57;;;;;;;1.73;1.63;;;;;;;13.90;34.69;95523.53;5011863;28;20036;-81
2021/11/07 12:19:33;;;;;;;1.75;1.65;;;;;;;13.74;34.39;95521.31;4997133;28;20040;-81
2021/11/07 12:22:06;;;;;;;1.73;1.60;;;;;;;13.00;35.34;95519.44;4993576;28;20030;-83
2021/11/07 12:24:36;;;;;;;1.92;1.83;;;;;;;13.85;34.46;95513.00;5012447;28;20097;-80
2021/11/07 12:27:22;;;;;;;1.60;1.50;;;;;;;14.42;33.45;95515.44;5012073;28;20052;-79
2021/11/07 12:29:52;;;;;;;2.25;1.90;;;;;;;13.88;33.32;95510.47;5011590;28;20109;-80
2021/11/07 12:32:17;;;;;;;1.67;1.50;;;;;;;13.13;34.41;95509.72;5012802;28;20498;-80
2021/11/07 12:40:51;;;;;;;1.45;1.30;;;;;;;14.25;32.74;95510.91;5009123;28;20123;-79
2021/11/07 12:43:35;;;;;;;1.35;1.25;;;;;;;14.12;32.21;95509.97;5012192;28;20033;-79
2021/11/07 12:48:56;;;;;;;1.60;1.38;;;;;;;13.53;33.21;95505.13;5016371;28;20034;-79
2021/11/07 12:51:32;;;;;;;1.40;1.30;;;;;;;13.06;34.21;95521.97;4992686;28;20030;-80
2021/11/07 12:54:13;;;;;;;1.15;1.10;;;;;;;13.40;33.34;95499.91;5007742;28;20104;-80
2021/11/07 12:56:58;;;;;;;1.50;1.40;;;;;;;13.48;33.79;95513.28;5012276;28;20058;-81
2021/11/07 12:59:44;;;;;;;1.48;1.35;;;;;;;13.24;34.50;95515.59;5012197;28;20057;-81
2021/11/07 13:02:15;;;;;;;1.00;1.00;;;;;;;13.07;34.21;95513.66;5027646;28;20032;-82
2021/11/07 13:05:37;;;;;;;1.73;1.30;;;;;;;13.63;34.03;95513.94;5024220;28;20026;-80
2021/11/07 13:08:44;;;;;;;1.42;1.33;;;;;;;13.13;34.51;95511.63;4992525;28;20047;-82
2021/11/07 13:16:19;;;;;;;1.17;1.08;;;;;;;13.01;33.69;95512.22;4992548;28;20037;-80
2021/11/07 13:21:35;;;;;;;1.38;1.10;;;;;;;13.34;33.07;95493.94;5002813;28;20022;-80
2021/11/07 13:30:12;;;;;;;;;;;;;;;14.01;32.30;95501.47;5016326;28;20438;-79
2021/11/07 13:32:39;;;;;;;1.00;1.00;;;;;;;14.08;32.35;95494.88;5015229;28;20514;-83
2021/11/07 13:35:21;;;;;;;1.13;1.02;;;;;;;14.15;31.65;95484.47;5007331;28;20033;-76
2021/11/07 13:38:10;;;;;;;0.98;0.90;;;;;;;14.76;30.80;95479.75;5004503;28;20033;-75
2021/11/07 13:40:39;;;;;;;1.02;0.73;;;;;;;14.42;31.82;95481.41;5014272;28;20037;-79
2021/11/07 13:43:14;;;;;;;0.70;0.70;;;;;;;13.97;31.69;95489.88;5013695;28;20087;-68
2021/11/07 13:45:42;;;;;;;2.45;0.80;;;;;;;13.90;31.38;95492.22;5014144;28;20022;-79
2021/11/07 13:48:14;;;;;;;1.83;0.88;;;;;;;13.25;31.67;95463.72;5015160;28;20105;-70
2021/11/07 13:50:42;;;;;;;;;;;;;;;13.91;30.51;95482.31;5024595;28;20429;-71
2021/11/07 13:53:07;;;;;;;1.02;0.93;;;;;;;14.13;29.49;95476.00;4994134;28;19963;-71
2021/11/07 13:55:35;;;;;;;1.15;1.05;;;;;;;13.69;30.29;95472.56;5013102;28;20109;-71
2021/11/07 13:58:16;;;;;;;1.00;0.90;;;;;;;13.19;31.06;95481.78;5013557;28;20511;-79
2021/11/07 14:00:44;;;;;;;0.80;0.80;;;;;;;13.45;30.75;95487.19;5012494;28;20037;-70
2021/11/07 14:03:12;;;;;;;1.17;0.98;;;;;;;13.48;30.62;95473.19;5013925;28;20427;-76
2021/11/07 14:05:40;;;;;;;1.13;0.85;;;;;;;13.68;30.73;95471.78;5001135;28;20133;-80
2021/11/07 14:08:06;;;;;;;1.10;1.00;;;;;;;13.55;30.75;95480.75;5000995;28;20408;-75
2021/11/07 14:10:34;;;;;;;1.33;1.08;;;;;;;14.15;30.48;95460.41;5012352;28;20097;-73
2021/11/07 14:13:08;;;;;;;1.30;1.20;;;;;;;14.48;29.67;95472.13;5012671;28;20380;-78
2021/11/07 14:15:36;;;;;;;1.20;0.90;;;;;;;14.30;29.27;95474.06;5013130;28;20110;-71
2021/11/07 14:18:09;;;;;;;1.20;1.10;;;;;;;13.99;29.76;95476.97;5012628;28;20675;-73
2021/11/07 14:20:48;;;;;;;0.90;0.90;;;;;;;14.37;29.27;95462.84;5001259;28;20028;-71
2021/11/07 14:23:22;;;;;;;1.33;1.20;;;;;;;14.62;29.50;95471.16;5008625;28;20462;-70